createdAt,value
2022-12-24T00:01:32.644Z,10.37
2022-12-24T00:03:36.369Z,10.33
2022-12-24T00:05:40.530Z,10.34
2022-12-24T00:07:43.320Z,10.38
2022-12-24T00:09:45.994Z,10.44
2022-12-24T00:11:48.686Z,10.62
2022-12-24T00:13:51.413Z,10.54
2022-12-24T00:15:54.210Z,10.46
2022-12-24T00:17:56.891Z,10.44
2022-12-24T00:19:59.546Z,10.39
2022-12-24T00:22:03.599Z,10.41
2022-12-24T00:24:06.954Z,10.39
2022-12-24T00:26:09.757Z,10.40
2022-12-24T00:28:12.530Z,10.39
2022-12-24T00:30:15.330Z,10.38
2022-12-24T00:32:18.005Z,10.34
2022-12-24T00:34:20.707Z,10.35
2022-12-24T00:36:23.916Z,10.32
2022-12-24T00:38:27.019Z,10.39
2022-12-24T00:40:29.669Z,10.43
2022-12-24T00:42:32.315Z,10.43
2022-12-24T00:44:34.919Z,10.43
2022-12-24T00:46:40.511Z,10.40
2022-12-24T00:48:43.283Z,10.44
2022-12-24T00:50:45.958Z,10.40
2022-12-24T00:52:48.791Z,10.30
2022-12-24T00:54:53.083Z,10.40
2022-12-24T00:56:55.808Z,10.29
2022-12-24T00:58:58.514Z,10.24
2022-12-24T01:01:01.341Z,10.29
2022-12-24T01:03:04.253Z,10.25
2022-12-24T01:05:12.792Z,10.28
2022-12-24T01:07:15.545Z,10.29
2022-12-24T01:09:18.221Z,10.22
2022-12-24T01:11:22.221Z,10.25
2022-12-24T01:13:25.231Z,10.24
2022-12-24T01:15:27.874Z,10.19
2022-12-24T01:17:32.605Z,10.22
2022-12-24T01:19:35.637Z,10.12
2022-12-24T01:21:38.359Z,10.12
2022-12-24T01:23:41.116Z,10.08
2022-12-24T01:25:43.849Z,10.12
2022-12-24T01:27:47.928Z,10.06
2022-12-24T01:29:50.636Z,10.08
2022-12-24T01:31:53.280Z,9.96
2022-12-24T01:33:55.943Z,9.92
2022-12-24T01:35:58.672Z,9.87
2022-12-24T01:38:01.310Z,9.86
2022-12-24T01:40:21.827Z,9.90
2022-12-24T01:42:42.639Z,9.92
2022-12-24T01:44:52.970Z,9.86
2022-12-24T01:47:08.465Z,9.91
2022-12-24T01:49:15.136Z,9.97
2022-12-24T01:51:22.379Z,9.93
2022-12-24T01:53:25.380Z,9.94
2022-12-24T01:55:28.111Z,9.66
2022-12-24T01:57:35.662Z,9.62
2022-12-24T01:59:39.682Z,9.79
2022-12-24T02:01:43.919Z,9.84
2022-12-24T02:03:46.889Z,9.89
2022-12-24T02:05:51.480Z,9.90
2022-12-24T02:07:54.255Z,9.77
2022-12-24T02:09:59.410Z,9.66
2022-12-24T02:12:02.824Z,9.67
2022-12-24T02:14:05.683Z,9.61
2022-12-24T02:16:17.961Z,9.46
2022-12-24T02:18:32.876Z,9.52
2022-12-24T02:21:18.787Z,9.59
2022-12-24T02:23:41.823Z,9.50
2022-12-24T02:26:00.954Z,9.44
2022-12-24T02:28:17.613Z,9.54
2022-12-24T02:30:23.074Z,9.43
2022-12-24T02:32:31.605Z,9.45
2022-12-24T02:34:39.655Z,9.40
2022-12-24T02:36:49.649Z,9.39
2022-12-24T02:39:00.147Z,9.47
2022-12-24T02:41:06.865Z,9.45
2022-12-24T02:43:12.407Z,9.40
2022-12-24T02:45:18.793Z,9.41
2022-12-24T02:47:26.526Z,9.30
2022-12-24T02:49:29.154Z,9.26
2022-12-24T02:51:31.810Z,9.30
2022-12-24T02:53:35.485Z,9.26
2022-12-24T02:55:46.416Z,9.15
2022-12-24T02:58:07.130Z,9.16
2022-12-24T03:00:12.774Z,9.13
2022-12-24T03:02:25.568Z,9.16
2022-12-24T03:04:40.557Z,9.11
2022-12-24T03:06:49.936Z,9.18
2022-12-24T03:08:58.955Z,9.12
2022-12-24T03:11:05.809Z,9.13
2022-12-24T03:13:14.802Z,9.04
2022-12-24T03:15:20.614Z,9.21
2022-12-24T03:17:23.372Z,9.23
2022-12-24T03:19:27.541Z,9.20
2022-12-24T03:21:35.755Z,9.19
2022-12-24T03:23:38.960Z,9.21
2022-12-24T03:25:43.791Z,9.26
2022-12-24T03:27:47.515Z,9.19
2022-12-24T03:29:50.154Z,9.24
2022-12-24T03:31:59.617Z,9.18
2022-12-24T03:34:02.320Z,9.06
2022-12-24T03:36:06.448Z,9.14
2022-12-24T03:38:10.452Z,9.19
2022-12-24T03:40:13.700Z,9.15
2022-12-24T03:42:16.352Z,9.25
2022-12-24T03:44:19.000Z,9.08
2022-12-24T03:46:21.726Z,8.99
2022-12-24T03:48:30.788Z,9.05
2022-12-24T03:50:35.313Z,9.04
2022-12-24T03:52:37.961Z,8.99
2022-12-24T03:54:41.972Z,8.96
2022-12-24T03:56:44.621Z,9.02
2022-12-24T03:58:47.291Z,9.00
2022-12-24T04:00:49.980Z,9.05
2022-12-24T04:02:52.735Z,9.10
2022-12-24T04:04:55.491Z,9.10
2022-12-24T04:06:58.107Z,9.19
2022-12-24T04:09:04.861Z,9.20
2022-12-24T04:11:11.665Z,9.12
2022-12-24T04:13:14.279Z,9.14
2022-12-24T04:15:17.758Z,9.09
2022-12-24T04:17:20.381Z,9.01
2022-12-24T04:19:22.972Z,9.01
2022-12-24T04:21:25.629Z,9.09
2022-12-24T04:23:28.273Z,9.05
2022-12-24T04:25:30.892Z,9.02
2022-12-24T04:27:34.902Z,8.90
2022-12-24T04:29:37.555Z,8.85
2022-12-24T04:31:40.210Z,8.84
2022-12-24T04:33:43.505Z,8.74
2022-12-24T04:35:46.169Z,8.76
2022-12-24T04:37:48.833Z,8.80
2022-12-24T04:39:51.638Z,8.71
2022-12-24T04:41:54.254Z,8.69
2022-12-24T04:43:58.268Z,8.73
2022-12-24T04:46:06.177Z,8.66
2022-12-24T04:48:08.851Z,8.72
2022-12-24T04:50:12.383Z,8.72
2022-12-24T04:52:15.028Z,8.79
2022-12-24T04:54:17.775Z,8.69
2022-12-24T04:56:22.805Z,8.66
2022-12-24T04:58:26.063Z,8.64
2022-12-24T05:00:30.057Z,8.66
2022-12-24T05:02:33.116Z,8.63
2022-12-24T05:04:36.031Z,8.67
2022-12-24T05:06:38.787Z,8.65
2022-12-24T05:08:41.775Z,8.65
2022-12-24T05:10:44.432Z,8.68
2022-12-24T05:12:47.108Z,8.61
2022-12-24T05:14:49.759Z,8.60
2022-12-24T05:16:53.880Z,8.56
2022-12-24T05:18:56.674Z,8.64
2022-12-24T05:20:59.368Z,8.58
2022-12-24T05:23:19.697Z,8.60
2022-12-24T05:25:40.039Z,8.61
2022-12-24T05:27:48.994Z,8.69
2022-12-24T05:29:53.638Z,8.66
2022-12-24T05:31:57.675Z,8.75
2022-12-24T05:34:00.469Z,8.73
2022-12-24T05:36:03.170Z,8.74
2022-12-24T05:38:05.829Z,8.72
2022-12-24T05:40:09.826Z,8.67
2022-12-24T05:42:12.493Z,8.72
2022-12-24T05:44:16.222Z,8.75
2022-12-24T05:46:21.734Z,8.78
2022-12-24T05:48:25.905Z,8.69
2022-12-24T05:50:28.547Z,8.69
2022-12-24T05:52:31.220Z,8.67
2022-12-24T05:54:33.853Z,8.66
2022-12-24T05:56:36.583Z,8.65
2022-12-24T05:58:40.827Z,8.63
2022-12-24T06:00:43.866Z,8.60
2022-12-24T06:02:46.572Z,8.66
2022-12-24T06:04:50.772Z,8.57
2022-12-24T06:06:53.439Z,8.60
2022-12-24T06:08:56.833Z,8.57
2022-12-24T06:11:00.692Z,8.59
2022-12-24T06:13:03.359Z,8.61
2022-12-24T06:15:07.308Z,8.62
2022-12-24T06:17:10.021Z,8.64
2022-12-24T06:19:12.763Z,8.62
2022-12-24T06:21:17.213Z,8.58
2022-12-24T06:23:20.723Z,8.63
2022-12-24T06:25:23.333Z,8.68
2022-12-24T06:27:26.018Z,8.73
2022-12-24T06:29:28.694Z,8.65
2022-12-24T06:31:31.408Z,8.61
2022-12-24T06:33:35.496Z,8.68
2022-12-24T06:35:38.203Z,8.66
2022-12-24T06:37:42.210Z,8.66
2022-12-24T06:39:46.127Z,8.72
2022-12-24T06:41:48.761Z,8.64
2022-12-24T06:43:53.006Z,8.59
2022-12-24T06:45:55.685Z,8.62
2022-12-24T06:47:58.359Z,8.61
2022-12-24T06:50:01.064Z,8.62
2022-12-24T06:52:03.737Z,8.56
2022-12-24T06:54:07.754Z,8.60
2022-12-24T06:56:12.303Z,8.57
2022-12-24T06:58:14.978Z,8.54
2022-12-24T07:00:18.552Z,8.55
2022-12-24T07:02:21.358Z,8.52
2022-12-24T07:04:24.244Z,8.62
2022-12-24T07:06:29.884Z,8.57
2022-12-24T07:08:36.188Z,8.61
2022-12-24T07:10:40.370Z,8.54
2022-12-24T07:12:43.241Z,8.55
2022-12-24T07:14:45.921Z,8.63
2022-12-24T07:16:51.350Z,8.59
2022-12-24T07:18:57.957Z,8.69
2022-12-24T07:21:00.759Z,8.66
2022-12-24T07:23:03.427Z,8.66
2022-12-24T07:25:06.916Z,8.64
2022-12-24T07:27:10.913Z,8.67
2022-12-24T07:29:13.637Z,8.64
2022-12-24T07:31:16.415Z,8.70
2022-12-24T07:33:19.087Z,8.62
2022-12-24T07:35:21.706Z,8.64
2022-12-24T07:37:24.315Z,8.64
2022-12-24T07:39:27.342Z,8.63
2022-12-24T07:41:29.981Z,8.62
2022-12-24T07:43:34.724Z,8.63
2022-12-24T07:45:37.399Z,8.74
2022-12-24T07:47:40.022Z,8.74
2022-12-24T07:49:42.712Z,8.73
2022-12-24T07:51:45.303Z,8.75
2022-12-24T07:53:48.266Z,8.68
2022-12-24T07:55:50.941Z,8.72
2022-12-24T07:57:53.620Z,8.72
2022-12-24T07:59:57.664Z,8.76
2022-12-24T08:02:00.681Z,8.73
2022-12-24T08:04:03.597Z,8.87
2022-12-24T08:06:06.819Z,8.87
2022-12-24T08:08:09.522Z,8.91
2022-12-24T08:10:12.310Z,8.90
2022-12-24T08:12:14.930Z,8.72
2022-12-24T08:14:17.583Z,8.76
2022-12-24T08:16:21.753Z,8.72
2022-12-24T08:18:24.571Z,8.96
2022-12-24T08:20:27.286Z,8.85
2022-12-24T08:22:30.035Z,8.77
2022-12-24T08:24:32.892Z,8.76
2022-12-24T08:26:35.610Z,8.75
2022-12-24T08:28:38.453Z,8.79
2022-12-24T08:30:41.319Z,8.79
2022-12-24T08:32:45.269Z,8.90
2022-12-24T08:34:47.940Z,9.00
2022-12-24T08:36:50.746Z,9.08
2022-12-24T08:38:53.400Z,9.02
2022-12-24T08:40:56.822Z,9.04
2022-12-24T08:42:59.507Z,8.99
2022-12-24T08:45:02.211Z,9.02
2022-12-24T08:47:05.096Z,9.06
2022-12-24T08:49:09.178Z,9.06
2022-12-24T08:51:13.371Z,8.94
2022-12-24T08:53:16.341Z,8.97
2022-12-24T08:55:19.170Z,8.96
2022-12-24T08:57:21.843Z,8.94
2022-12-24T08:59:24.754Z,9.07
2022-12-24T09:01:27.630Z,9.07
2022-12-24T09:03:30.717Z,9.13
2022-12-24T09:05:35.102Z,9.02
2022-12-24T09:07:38.028Z,9.08
2022-12-24T09:09:40.761Z,9.09
2022-12-24T09:11:43.451Z,9.19
2022-12-24T09:13:46.095Z,9.24
2022-12-24T09:15:54.347Z,9.26
2022-12-24T09:17:57.005Z,9.33
2022-12-24T09:19:59.604Z,9.53
2022-12-24T09:22:03.866Z,9.50
2022-12-24T09:24:07.110Z,9.39
2022-12-24T09:26:11.556Z,9.39
2022-12-24T09:28:14.259Z,9.50
2022-12-24T09:30:17.349Z,9.62
2022-12-24T09:32:20.105Z,9.64
2022-12-24T09:34:30.027Z,9.50
2022-12-24T09:36:34.577Z,9.57
2022-12-24T09:38:40.126Z,9.60
2022-12-24T09:40:42.974Z,9.59
2022-12-24T09:42:52.770Z,9.55
2022-12-24T09:45:02.427Z,9.60
2022-12-24T09:47:12.524Z,9.52
2022-12-24T09:49:20.121Z,9.51
2022-12-24T09:51:29.317Z,9.45
2022-12-24T09:53:41.027Z,9.41
2022-12-24T09:55:46.917Z,9.43
2022-12-24T09:57:52.741Z,9.35
2022-12-24T09:59:56.592Z,9.47
2022-12-24T10:02:01.421Z,9.47
2022-12-24T10:04:06.447Z,9.49
2022-12-24T10:06:15.499Z,9.53
2022-12-24T10:08:30.196Z,9.63
2022-12-24T10:10:40.477Z,9.88
2022-12-24T10:12:52.283Z,9.93
2022-12-24T10:15:03.995Z,9.94
2022-12-24T10:17:23.749Z,9.89
2022-12-24T10:19:34.250Z,9.92
2022-12-24T10:21:49.302Z,9.85
2022-12-24T10:23:59.368Z,9.93
2022-12-24T10:26:13.832Z,9.98
2022-12-24T10:28:19.029Z,10.15
2022-12-24T10:30:24.076Z,10.26
2022-12-24T10:32:30.067Z,10.35
2022-12-24T10:34:38.079Z,10.47
2022-12-24T10:36:40.737Z,10.36
2022-12-24T10:38:43.549Z,10.34
2022-12-24T10:40:49.555Z,10.30
2022-12-24T10:42:53.596Z,10.23
2022-12-24T10:45:01.693Z,10.12
2022-12-24T10:47:07.045Z,10.25
2022-12-24T10:49:15.594Z,10.25
2022-12-24T10:51:23.764Z,10.40
2022-12-24T10:53:34.739Z,10.39
2022-12-24T10:55:37.410Z,10.24
2022-12-24T10:57:40.320Z,10.44
2022-12-24T10:59:51.598Z,10.34
2022-12-24T11:01:55.015Z,10.40
2022-12-24T11:04:02.303Z,10.27
2022-12-24T11:06:11.265Z,10.25
2022-12-24T11:08:18.138Z,10.28
2022-12-24T11:10:25.607Z,10.38
2022-12-24T11:12:31.495Z,10.36
2022-12-24T11:14:37.534Z,10.49
2022-12-24T11:16:41.528Z,10.46
2022-12-24T11:18:51.293Z,10.59
2022-12-24T11:20:55.282Z,10.57
2022-12-24T11:22:58.733Z,10.47
2022-12-24T11:25:05.259Z,10.54
2022-12-24T11:27:33.680Z,10.62
2022-12-24T11:29:36.334Z,10.65
2022-12-24T11:31:39.142Z,10.74
2022-12-24T11:33:49.815Z,10.67
2022-12-24T11:36:01.514Z,10.60
2022-12-24T11:38:12.377Z,10.64
2022-12-24T11:40:28.441Z,10.66
2022-12-24T11:42:34.696Z,10.71
2022-12-24T11:44:49.796Z,10.79
2022-12-24T11:46:56.710Z,10.80
2022-12-24T11:49:16.507Z,10.88
2022-12-24T11:51:25.261Z,10.87
2022-12-24T11:53:35.569Z,10.96
2022-12-24T11:55:45.544Z,11.01
2022-12-24T11:57:54.879Z,10.90
2022-12-24T11:59:57.599Z,11.00
2022-12-24T12:02:13.841Z,11.04
2022-12-24T12:04:21.683Z,10.95
2022-12-24T12:06:32.463Z,10.91
2022-12-24T12:08:38.638Z,10.93
2022-12-24T12:10:44.560Z,10.94
2022-12-24T12:12:51.139Z,11.10
2022-12-24T12:14:58.129Z,11.23
2022-12-24T12:17:07.665Z,11.39
2022-12-24T12:19:15.275Z,11.58
2022-12-24T12:21:23.196Z,11.74
2022-12-24T12:23:30.976Z,11.38
2022-12-24T12:25:40.221Z,11.51
2022-12-24T12:27:47.443Z,11.64
2022-12-24T12:29:56.976Z,11.84
2022-12-24T12:32:05.948Z,11.98
2022-12-24T12:34:13.613Z,12.34
2022-12-24T12:36:22.272Z,12.27
2022-12-24T12:38:29.403Z,12.14
2022-12-24T12:40:51.515Z,11.95
2022-12-24T12:43:07.492Z,11.94
2022-12-24T12:45:38.332Z,11.86
2022-12-24T12:47:57.235Z,11.74
2022-12-24T12:50:09.083Z,11.66
2022-12-24T12:52:23.357Z,11.69
2022-12-24T12:54:40.284Z,11.84
2022-12-24T12:56:48.491Z,11.97
2022-12-24T12:58:55.556Z,11.91
2022-12-24T13:01:06.529Z,12.09
2022-12-24T13:03:44.697Z,11.88
2022-12-24T13:06:14.561Z,11.82
2022-12-24T13:08:33.870Z,11.80
2022-12-24T13:10:58.724Z,11.84
2022-12-24T13:13:26.565Z,11.68
2022-12-24T13:15:53.852Z,11.63
2022-12-24T13:18:17.486Z,11.63
2022-12-24T13:20:25.199Z,11.76
2022-12-24T13:22:28.120Z,11.74
2022-12-24T13:24:35.180Z,11.64
2022-12-24T13:26:37.823Z,11.65
2022-12-24T13:28:41.376Z,11.45
2022-12-24T13:30:44.547Z,11.07
2022-12-24T13:32:52.504Z,11.31
2022-12-24T13:34:56.961Z,11.54
2022-12-24T13:37:20.780Z,11.64
2022-12-24T13:39:23.387Z,11.39
2022-12-24T13:42:00.178Z,11.49
2022-12-24T13:44:04.590Z,11.30
2022-12-24T13:46:08.804Z,11.27
2022-12-24T13:48:23.618Z,11.33
2022-12-24T13:50:36.970Z,11.20
2022-12-24T13:52:42.709Z,11.19
2022-12-24T13:54:51.473Z,11.23
2022-12-24T13:56:54.217Z,11.10
2022-12-24T13:59:18.174Z,11.24
2022-12-24T14:01:24.051Z,11.14
2022-12-24T14:03:31.698Z,11.24
2022-12-24T14:05:39.378Z,11.20
2022-12-24T14:07:48.831Z,11.30
2022-12-24T14:09:52.537Z,11.27
2022-12-24T14:12:32.398Z,11.26
2022-12-24T14:14:38.719Z,11.22
2022-12-24T14:16:48.745Z,11.29
2022-12-24T14:18:59.820Z,11.25
2022-12-24T14:21:03.708Z,11.44
2022-12-24T14:23:07.580Z,11.29
2022-12-24T14:25:17.438Z,11.34
2022-12-24T14:27:25.706Z,11.25
2022-12-24T14:29:32.086Z,11.21
2022-12-24T14:31:36.356Z,11.15
2022-12-24T14:33:39.102Z,11.15
2022-12-24T14:35:42.747Z,11.09
2022-12-24T14:37:49.244Z,11.06
2022-12-24T14:39:56.889Z,11.00
2022-12-24T14:42:29.360Z,11.05
2022-12-24T14:44:41.743Z,11.00
2022-12-24T14:46:51.467Z,11.01
2022-12-24T14:48:57.324Z,11.01
2022-12-24T14:51:08.449Z,10.96
2022-12-24T14:53:24.633Z,10.91
2022-12-24T14:55:40.412Z,10.86
2022-12-24T14:57:42.985Z,10.93
2022-12-24T14:59:48.772Z,10.88
2022-12-24T15:01:53.100Z,10.80
2022-12-24T15:04:05.089Z,10.79
2022-12-24T15:06:11.721Z,10.67
2022-12-24T15:08:17.135Z,10.73
2022-12-24T15:10:34.903Z,10.57
2022-12-24T15:12:41.973Z,10.59
2022-12-24T15:14:46.510Z,10.59
2022-12-24T15:16:55.972Z,10.44
2022-12-24T15:19:01.875Z,10.45
2022-12-24T15:21:06.748Z,10.43
2022-12-24T15:23:19.697Z,10.33
2022-12-24T15:25:25.256Z,10.45
2022-12-24T15:27:28.719Z,10.28
2022-12-24T15:29:33.119Z,10.24
2022-12-24T15:31:35.779Z,10.30
2022-12-24T15:33:40.129Z,10.22
2022-12-24T15:35:53.176Z,10.26
2022-12-24T15:37:58.999Z,10.37
2022-12-24T15:40:08.833Z,10.21
2022-12-24T15:42:18.688Z,10.16
2022-12-24T15:44:21.478Z,10.23
2022-12-24T15:46:29.207Z,10.16
2022-12-24T15:48:32.727Z,10.13
2022-12-24T15:50:38.722Z,10.13
2022-12-24T15:52:45.623Z,10.14
2022-12-24T15:54:57.711Z,10.15
2022-12-24T15:57:00.914Z,10.06
2022-12-24T15:59:27.236Z,10.05
2022-12-24T16:01:30.219Z,10.00
2022-12-24T16:03:33.834Z,10.04
2022-12-24T16:05:39.348Z,10.01
2022-12-24T16:07:57.876Z,9.99
2022-12-24T16:10:14.861Z,10.02
2022-12-24T16:12:23.019Z,9.99
2022-12-24T16:14:25.839Z,10.07
2022-12-24T16:16:37.261Z,10.06
2022-12-24T16:18:45.877Z,10.09
2022-12-24T16:20:54.181Z,10.02
2022-12-24T16:22:56.950Z,10.06
2022-12-24T16:24:59.740Z,10.08
2022-12-24T16:27:02.426Z,10.12
2022-12-24T16:29:05.143Z,10.04
2022-12-24T16:31:07.939Z,10.06
2022-12-24T16:33:15.692Z,9.98
2022-12-24T16:35:27.026Z,10.03
2022-12-24T16:37:31.355Z,10.17
2022-12-24T16:39:35.642Z,10.12
2022-12-24T16:42:04.109Z,10.12
2022-12-24T16:44:05.763Z,10.14
2022-12-24T16:46:08.722Z,10.19
2022-12-24T16:48:20.235Z,10.13
2022-12-24T16:50:22.919Z,10.16
2022-12-24T16:52:28.820Z,10.14
2022-12-24T16:54:32.870Z,9.99
2022-12-24T16:56:35.499Z,10.04
2022-12-24T16:58:38.181Z,10.01
2022-12-24T17:00:41.582Z,9.99
2022-12-24T17:02:44.477Z,9.99
2022-12-24T17:04:47.619Z,10.06
2022-12-24T17:06:51.218Z,9.98
2022-12-24T17:08:53.822Z,9.97
2022-12-24T17:10:57.801Z,10.00
2022-12-24T17:13:00.556Z,10.06
2022-12-24T17:15:03.268Z,9.99
2022-12-24T17:17:05.935Z,10.04
2022-12-24T17:19:09.549Z,10.08
2022-12-24T17:21:13.716Z,10.10
2022-12-24T17:23:16.359Z,10.09
2022-12-24T17:25:19.325Z,10.08
2022-12-24T17:27:24.133Z,10.07
2022-12-24T17:29:26.808Z,10.05
2022-12-24T17:31:29.608Z,10.00
2022-12-24T17:33:32.273Z,10.02
2022-12-24T17:35:34.936Z,9.96
2022-12-24T17:37:37.648Z,9.94
2022-12-24T17:39:40.299Z,9.92
2022-12-24T17:41:42.932Z,10.02
2022-12-24T17:43:47.488Z,9.92
2022-12-24T17:45:50.146Z,9.89
2022-12-24T17:47:52.877Z,9.91
2022-12-24T17:49:55.595Z,9.85
2022-12-24T17:51:58.633Z,9.84
2022-12-24T17:54:02.379Z,9.81
2022-12-24T17:56:05.946Z,9.93
2022-12-24T17:58:08.805Z,9.73
2022-12-24T18:00:14.857Z,9.80
2022-12-24T18:02:17.690Z,9.71
2022-12-24T18:04:20.413Z,9.64
2022-12-24T18:06:23.785Z,9.60
2022-12-24T18:08:26.416Z,9.59
2022-12-24T18:10:30.061Z,9.51
2022-12-24T18:12:32.791Z,9.56
2022-12-24T18:14:35.585Z,9.49
2022-12-24T18:16:40.908Z,9.48
2022-12-24T18:18:44.731Z,9.55
2022-12-24T18:20:47.384Z,9.49
2022-12-24T18:22:50.613Z,9.44
2022-12-24T18:24:53.297Z,9.42
2022-12-24T18:26:56.682Z,9.35
2022-12-24T18:29:00.990Z,9.42
2022-12-24T18:31:06.404Z,9.40
2022-12-24T18:33:10.453Z,9.40
2022-12-24T18:35:13.092Z,9.37
2022-12-24T18:37:15.725Z,9.48
2022-12-24T18:39:18.394Z,9.48
2022-12-24T18:41:22.912Z,9.34
2022-12-24T18:43:25.587Z,9.38
2022-12-24T18:45:28.187Z,9.28
2022-12-24T18:47:30.828Z,9.31
2022-12-24T18:49:35.041Z,9.28
2022-12-24T18:51:38.633Z,9.30
2022-12-24T18:53:41.307Z,9.29
2022-12-24T18:55:43.897Z,9.32
2022-12-24T18:57:46.530Z,9.31
2022-12-24T18:59:49.224Z,9.37
2022-12-24T19:01:52.183Z,9.33
2022-12-24T19:03:55.663Z,9.25
2022-12-24T19:06:02.887Z,9.28
2022-12-24T19:08:22.075Z,9.26
2022-12-24T19:10:28.647Z,9.25
2022-12-24T19:12:31.246Z,9.28
2022-12-24T19:14:34.173Z,9.23
2022-12-24T19:16:38.409Z,9.28
2022-12-24T19:18:41.160Z,9.26
2022-12-24T19:20:43.754Z,9.26
2022-12-24T19:22:47.773Z,9.26
2022-12-24T19:24:51.196Z,9.23
2022-12-24T19:26:53.836Z,9.24
2022-12-24T19:28:56.585Z,9.25
2022-12-24T19:31:04.291Z,9.26
2022-12-24T19:33:07.506Z,9.25
2022-12-24T19:35:10.505Z,9.31
2022-12-24T19:37:13.317Z,9.24
2022-12-24T19:39:17.578Z,9.26
2022-12-24T19:41:22.808Z,9.26
2022-12-24T19:43:25.458Z,9.31
2022-12-24T19:45:28.229Z,9.25
2022-12-24T19:47:31.052Z,9.23
2022-12-24T19:49:33.737Z,9.22
2022-12-24T19:51:36.578Z,9.22
2022-12-24T19:53:40.350Z,9.21
2022-12-24T19:55:47.115Z,9.21
2022-12-24T19:57:49.602Z,9.19
2022-12-24T19:59:52.231Z,9.19
2022-12-24T20:01:56.297Z,9.26
2022-12-24T20:03:59.573Z,9.21
2022-12-24T20:06:02.359Z,9.24
2022-12-24T20:08:05.481Z,9.21
2022-12-24T20:10:09.467Z,9.23
2022-12-24T20:12:13.675Z,9.34
2022-12-24T20:14:16.349Z,9.32
2022-12-24T20:16:20.775Z,9.23
2022-12-24T20:18:23.595Z,9.32
2022-12-24T20:20:26.282Z,9.34
2022-12-24T20:22:28.942Z,9.34
2022-12-24T20:24:31.713Z,9.37
2022-12-24T20:26:34.619Z,9.36
2022-12-24T20:28:38.967Z,9.36
2022-12-24T20:30:41.710Z,9.36
2022-12-24T20:32:44.326Z,9.31
2022-12-24T20:34:46.986Z,9.27
2022-12-24T20:36:49.635Z,9.23
2022-12-24T20:38:52.587Z,9.19
2022-12-24T20:40:57.743Z,9.26
2022-12-24T20:43:00.401Z,9.16
2022-12-24T20:45:04.965Z,9.07
2022-12-24T20:47:07.645Z,9.15
2022-12-24T20:49:12.176Z,8.96
2022-12-24T20:51:23.346Z,8.81
2022-12-24T20:53:27.212Z,8.87
2022-12-24T20:55:29.852Z,8.79
2022-12-24T20:57:36.427Z,8.74
2022-12-24T20:59:39.504Z,8.66
2022-12-24T21:01:43.598Z,8.72
2022-12-24T21:03:47.169Z,8.66
2022-12-24T21:05:49.852Z,8.61
2022-12-24T21:07:52.661Z,8.58
2022-12-24T21:09:55.323Z,8.56
2022-12-24T21:12:15.643Z,8.51
2022-12-24T21:14:21.600Z,8.50
2022-12-24T21:16:24.386Z,8.51
2022-12-24T21:18:28.432Z,8.49
2022-12-24T21:20:31.341Z,8.40
2022-12-24T21:22:33.962Z,8.45
2022-12-24T21:24:36.559Z,8.42
2022-12-24T21:26:39.293Z,8.44
2022-12-24T21:28:42.595Z,8.42
2022-12-24T21:30:45.294Z,8.38
2022-12-24T21:32:48.397Z,8.44
2022-12-24T21:34:52.408Z,8.36
2022-12-24T21:36:55.042Z,8.37
2022-12-24T21:38:57.718Z,8.32
2022-12-24T21:41:01.458Z,8.36
2022-12-24T21:43:04.363Z,8.36
2022-12-24T21:45:08.466Z,8.41
2022-12-24T21:47:11.183Z,8.43
2022-12-24T21:49:31.217Z,8.45
2022-12-24T21:51:35.153Z,8.43
2022-12-24T21:54:07.349Z,8.43
2022-12-24T21:56:11.423Z,8.43
2022-12-24T21:58:13.128Z,8.46
2022-12-24T22:00:26.917Z,8.50
2022-12-24T22:02:29.749Z,8.48
2022-12-24T22:04:33.058Z,8.45
2022-12-24T22:06:54.625Z,8.47
2022-12-24T22:09:15.101Z,8.46
2022-12-24T22:11:35.492Z,8.45
2022-12-24T22:13:38.111Z,8.39
2022-12-24T22:15:44.443Z,8.42
2022-12-24T22:17:47.061Z,8.37
2022-12-24T22:19:49.705Z,8.35
2022-12-24T22:21:53.633Z,8.34
2022-12-24T22:23:56.264Z,8.16
2022-12-24T22:25:58.882Z,8.11
2022-12-24T22:28:01.487Z,8.07
2022-12-24T22:30:04.488Z,8.09
2022-12-24T22:32:07.435Z,8.09
2022-12-24T22:34:10.053Z,8.12
2022-12-24T22:36:12.674Z,8.12
2022-12-24T22:38:16.677Z,8.10
2022-12-24T22:40:19.320Z,8.06
2022-12-24T22:42:21.915Z,8.10
2022-12-24T22:44:24.534Z,8.02
2022-12-24T22:46:27.213Z,8.07
2022-12-24T22:48:29.933Z,8.11
2022-12-24T22:50:32.675Z,7.99
2022-12-24T22:52:36.284Z,8.17
2022-12-24T22:54:40.281Z,8.12
2022-12-24T22:56:43.086Z,8.02
2022-12-24T22:58:45.923Z,7.96
2022-12-24T23:00:48.569Z,8.00
2022-12-24T23:02:51.301Z,7.97
2022-12-24T23:04:54.233Z,7.93
2022-12-24T23:06:56.938Z,7.93
2022-12-24T23:08:59.519Z,7.93
2022-12-24T23:11:08.239Z,7.93
2022-12-24T23:13:42.873Z,7.92
2022-12-24T23:15:45.620Z,7.99
2022-12-24T23:17:49.648Z,7.85
2022-12-24T23:19:52.375Z,7.87
2022-12-24T23:21:54.962Z,7.83
2022-12-24T23:23:58.169Z,7.86
2022-12-24T23:26:03.504Z,7.89
2022-12-24T23:28:07.759Z,7.86
2022-12-24T23:30:11.193Z,7.82
2022-12-24T23:32:13.792Z,7.91
2022-12-24T23:34:16.459Z,7.89
2022-12-24T23:36:19.620Z,7.94
2022-12-24T23:38:22.439Z,7.95
2022-12-24T23:40:25.159Z,7.94
2022-12-24T23:42:27.780Z,7.95
2022-12-24T23:44:32.838Z,7.95
2022-12-24T23:46:35.770Z,7.96
2022-12-24T23:48:38.490Z,7.91
2022-12-24T23:50:41.117Z,7.92
2022-12-24T23:52:43.711Z,7.86
2022-12-24T23:54:46.366Z,7.86
2022-12-24T23:56:49.012Z,7.86
2022-12-24T23:58:51.946Z,7.91
